EDLI 020008Z 11005KT 9999 ///214 05/04 Q1003

Wind aktuell: 110° mit 6 kt

Wind 10 Minuten extrem:

080° bis 130° mit 4 kt bis 7 kt

Seitenwindkomponente: 0.0 kt

Wolkengrenze 1: 2220

Wolkengrenze 2: keine

Wolkengrenze 3: keine

Sichtweite: 20.000 Meter

Vorheriges Wetter:

Aktuelles Wetter:

Druckhöhe: 724 ft

Dichtehöhe: -254 ft

Temperatur: 5.4 °C

Taupunkt: 4.9 °C

Luftfeuchtigkeit: 95%

QNH: 1003 hPa 

QFE: 987 hPa

Diese Daten werden automatisch ermittelt bzw. übertragen und sind nicht geprüft. Für die Richtigkeit wird daher keine Gewähr übernommen. Sie ersetzen im übrigen nicht die Flugwetterberatung. Alle Zeitangaben beziehen sich auf UTC. Die Seite wird einmal die Minute aktualisiert! Sollten Sie ein ältere Seite haben, so drücken Sie bitte auf den Reload Button Ihres Browsers!